Time;durP1;ratioP1;P1;durP2;ratioP2;P2;SDS_P1;SDS_P2;PMS_P1;PMS_P2;Temp;Humidity;BMP_temperature;BMP_pressure;BME280_temperature;BME280_humidity;BME280_pressure;Samples;Min_cycle;Max_cycle;Signal;HPM_P1;HPM_P2
2023/01/19 00:01:17;;;;;;;4.45;1.90;;;2.10;99.90;;;;;;5071111;28;20431;-52
2023/01/19 00:03:43;;;;;;;3.92;2.35;;;2.20;99.90;;;;;;5077773;28;20048;-49
2023/01/19 00:06:09;;;;;;;3.95;2.20;;;1.80;99.90;;;;;;5080871;28;20572;-49
2023/01/19 00:08:35;;;;;;;4.68;1.90;;;1.90;99.90;;;;;;5072227;28;20115;-51
2023/01/19 00:11:01;;;;;;;3.45;1.88;;;1.40;99.90;;;;;;5081573;28;20068;-51
2023/01/19 00:13:27;;;;;;;2.97;1.63;;;1.40;99.90;;;;;;5070814;28;20421;-49
2023/01/19 00:15:53;;;;;;;3.50;1.80;;;1.30;99.90;;;;;;5070805;28;20117;-49
2023/01/19 00:18:20;;;;;;;4.18;2.00;;;1.80;99.90;;;;;;5070429;28;20032;-50
2023/01/19 00:20:46;;;;;;;4.13;1.88;;;1.30;99.90;;;;;;5070679;28;20484;-49
2023/01/19 00:23:13;;;;;;;4.05;1.75;;;1.80;99.90;;;;;;5070479;28;20435;-50
2023/01/19 00:25:41;;;;;;;3.45;1.70;;;2.40;99.90;;;;;;5068919;28;20468;-51
2023/01/19 00:28:15;;;;;;;5.18;1.92;;;1.60;99.90;;;;;;5069149;28;20539;-51
2023/01/19 00:30:41;;;;;;;;;;;1.70;99.90;;;;;;5069890;28;20044;-50
2023/01/19 00:33:08;;;;;;;5.93;2.05;;;1.90;99.90;;;;;;5070300;28;19916;-48
2023/01/19 00:35:34;;;;;;;4.53;2.60;;;1.20;99.90;;;;;;5070234;28;20036;-50
2023/01/19 00:38:02;;;;;;;4.90;2.47;;;1.80;99.90;;;;;;5069958;28;20075;-47
2023/01/19 00:40:28;;;;;;;6.45;3.10;;;1.70;99.90;;;;;;5070326;28;20119;-48
2023/01/19 00:42:54;;;;;;;4.93;2.80;;;1.20;99.90;;;;;;5070292;28;20135;-47
2023/01/19 00:45:22;;;;;;;6.70;3.38;;;1.70;99.90;;;;;;5070139;28;20055;-48
2023/01/19 00:47:53;;;;;;;6.22;3.55;;;1.80;99.90;;;;;;5070018;28;20384;-48
2023/01/19 00:50:19;;;;;;;5.80;3.33;;;1.80;99.90;;;;;;5070026;28;20099;-52
2023/01/19 00:52:45;;;;;;;6.63;4.20;;;1.70;99.90;;;;;;5069633;28;20044;-48
2023/01/19 00:55:14;;;;;;;6.55;4.22;;;1.70;99.90;;;;;;5069509;28;20391;-48
2023/01/19 00:57:40;;;;;;;8.20;4.78;;;1.70;99.90;;;;;;5070260;28;20068;-48
2023/01/19 01:00:10;;;;;;;10.77;5.38;;;2.00;99.90;;;;;;5069042;28;20047;-51
2023/01/19 01:02:36;;;;;;;9.35;5.43;;;1.80;99.90;;;;;;5069926;28;20040;-49
2023/01/19 01:05:04;;;;;;;9.30;5.38;;;1.20;99.90;;;;;;5068736;28;20468;-49
2023/01/19 01:07:39;;;;;;;9.85;5.78;;;1.90;99.90;;;;;;5069818;28;20115;-50
2023/01/19 01:10:09;;;;;;;11.77;6.13;;;1.90;99.90;;;;;;5068363;28;20130;-48
2023/01/19 01:12:36;;;;;;;11.57;6.07;;;1.30;99.90;;;;;;5067991;28;20040;-47
2023/01/19 01:15:06;;;;;;;14.25;7.07;;;1.40;99.90;;;;;;5070020;28;20082;-47
2023/01/19 01:17:32;;;;;;;14.57;7.15;;;1.80;99.90;;;;;;5079469;28;20098;-51
2023/01/19 01:19:58;;;;;;;12.50;7.20;;;1.80;99.90;;;;;;5070694;28;20033;-48
2023/01/19 01:22:24;;;;;;;14.07;8.15;;;1.40;99.90;;;;;;5073968;28;20060;-48
2023/01/19 01:24:49;;;;;;;13.93;8.25;;;1.40;99.90;;;;;;5079705;28;20036;-48
2023/01/19 01:27:15;;;;;;;19.48;10.00;;;2.10;99.90;;;;;;5085693;28;20039;-47
2023/01/19 01:29:47;;;;;;;16.17;9.93;;;0.70;99.90;;;;;;5073333;28;20044;-48
2023/01/19 01:32:13;;;;;;;19.10;10.63;;;1.40;99.90;;;;;;5073932;28;20037;-49
2023/01/19 01:34:40;;;;;;;18.17;10.18;;;1.60;99.90;;;;;;5073622;28;20028;-49
2023/01/19 01:37:07;;;;;;;21.27;10.73;;;1.50;99.90;;;;;;5073410;28;20128;-49
2023/01/19 01:39:36;;;;;;;18.77;11.32;;;1.40;99.90;;;;;;5078183;28;20037;-51
2023/01/19 01:42:02;;;;;;;19.27;10.70;;;2.80;99.90;;;;;;5072879;28;20043;-51
2023/01/19 01:44:50;;;;;;;19.90;11.57;;;1.60;99.90;;;;;;5073121;28;20133;-50
2023/01/19 01:47:25;;;;;;;20.20;11.48;;;2.10;99.90;;;;;;5073801;28;20494;-49
2023/01/19 01:50:09;;;;;;;21.08;10.90;;;2.20;99.90;;;;;;5073155;28;20036;-47
2023/01/19 01:52:46;;;;;;;21.85;10.80;;;2.20;99.90;;;;;;5073022;28;20045;-49
2023/01/19 01:55:13;;;;;;;15.82;9.70;;;2.00;99.90;;;;;;5072871;28;20037;-49
2023/01/19 01:57:43;;;;;;;16.15;9.88;;;2.30;99.90;;;;;;5072933;28;20517;-50
2023/01/19 02:00:10;;;;;;;16.52;8.70;;;2.30;99.90;;;;;;5073459;28;20498;-49
2023/01/19 02:02:53;;;;;;;15.40;8.50;;;1.90;99.90;;;;;;5072863;28;20040;-47
2023/01/19 02:05:26;;;;;;;17.10;9.07;;;2.30;99.90;;;;;;5072780;28;20395;-50
2023/01/19 02:13:31;;;;;;;16.05;7.95;;;1.70;99.90;;;;;;5072159;28;20040;-49
2023/01/19 02:16:01;;;;;;;14.80;7.15;;;2.40;99.90;;;;;;5071464;28;20041;-48
2023/01/19 02:18:28;;;;;;;10.93;6.75;;;2.10;99.90;;;;;;5083002;28;20077;-47
2023/01/19 02:21:12;;;;;;;16.38;7.55;;;2.20;99.90;;;;;;5072891;28;20037;-52
2023/01/19 02:23:50;;;;;;;13.93;6.93;;;1.70;99.90;;;;;;5072620;28;20045;-49
2023/01/19 02:26:34;;;;;;;11.55;6.97;;;2.30;99.90;;;;;;5072539;28;20048;-48
2023/01/19 02:29:03;;;;;;;18.08;7.10;;;2.00;99.90;;;;;;5079917;28;20078;-49
2023/01/19 02:31:30;;;;;;;12.35;7.43;;;2.50;99.90;;;;;;5071723;28;20060;-50
2023/01/19 02:33:57;;;;;;;12.57;6.47;;;2.30;99.90;;;;;;5072570;28;20427;-47
2023/01/19 02:36:27;;;;;;;11.65;7.45;;;2.20;99.90;;;;;;5072015;28;20484;-51
2023/01/19 02:38:56;;;;;;;11.80;6.88;;;2.10;99.90;;;;;;5071245;28;20438;-50
2023/01/19 02:41:27;;;;;;;12.68;7.45;;;2.70;99.90;;;;;;5071170;28;20066;-50
2023/01/19 02:43:54;;;;;;;11.48;6.70;;;1.70;99.90;;;;;;5078136;28;20040;-50
2023/01/19 02:46:20;;;;;;;11.25;6.30;;;1.90;99.90;;;;;;5072466;28;20636;-50
2023/01/19 02:48:46;;;;;;;11.90;6.53;;;1.50;99.90;;;;;;5075933;28;20040;-50
2023/01/19 02:51:22;;;;;;;10.77;6.28;;;2.10;99.90;;;;;;5073912;28;20049;-49
2023/01/19 02:53:57;;;;;;;10.90;5.90;;;1.60;99.90;;;;;;5072147;28;20040;-51
2023/01/19 02:56:45;;;;;;;9.88;6.00;;;1.30;99.90;;;;;;5072037;28;20510;-51
2023/01/19 02:59:31;;;;;;;10.75;6.13;;;2.00;99.90;;;;;;5071148;28;20380;-57
2023/01/19 03:02:42;;;;;;;7.82;5.10;;;1.90;99.90;;;;;;5071935;28;20056;-50
2023/01/19 03:05:22;;;;;;;10.43;5.80;;;1.70;99.90;;;;;;5066080;28;20048;-49
2023/01/19 03:08:06;;;;;;;8.75;5.38;;;1.80;99.90;;;;;;5071918;28;20060;-47
2023/01/19 03:10:58;;;;;;;8.82;5.18;;;1.10;99.90;;;;;;5070386;28;20044;-48
2023/01/19 03:13:40;;;;;;;8.65;4.68;;;1.70;99.90;;;;;;5071379;28;20037;-48
2023/01/19 03:16:27;;;;;;;7.90;4.65;;;1.80;99.90;;;;;;5070411;28;20089;-47
2023/01/19 03:19:03;;;;;;;6.65;3.97;;;1.70;99.90;;;;;;5070280;28;20044;-50
2023/01/19 03:21:32;;;;;;;6.57;3.92;;;1.40;99.90;;;;;;5071108;28;20048;-51
2023/01/19 03:24:02;;;;;;;6.75;3.90;;;1.90;99.90;;;;;;5069874;28;20037;-48
2023/01/19 03:26:33;;;;;;;7.65;3.42;;;1.30;99.90;;;;;;5073448;28;20037;-50
2023/01/19 03:29:02;;;;;;;7.90;3.88;;;2.10;99.90;;;;;;5071653;28;20094;-48
2023/01/19 03:31:29;;;;;;;6.95;3.67;;;1.80;99.90;;;;;;5070167;28;20098;-50
2023/01/19 03:34:08;;;;;;;9.27;3.60;;;1.40;99.90;;;;;;5069606;28;20047;-48
2023/01/19 03:36:40;;;;;;;9.73;4.53;;;1.60;99.90;;;;;;5071117;28;20127;-49
2023/01/19 03:39:07;;;;;;;8.73;5.00;;;2.00;99.90;;;;;;5070738;28;20043;-49
2023/01/19 03:41:35;;;;;;;9.95;5.20;;;1.60;99.90;;;;;;5069594;28;20044;-51
2023/01/19 03:44:04;;;;;;;9.50;5.03;;;2.70;99.90;;;;;;5068518;28;20056;-51
2023/01/19 03:46:31;;;;;;;8.93;4.30;;;1.80;99.90;;;;;;5069748;28;20563;-51
2023/01/19 03:48:57;;;;;;;10.38;4.57;;;1.50;99.90;;;;;;5070434;28;20051;-46
2023/01/19 03:51:23;;;;;;;11.35;4.47;;;1.90;99.90;;;;;;5071482;28;20045;-49
2023/01/19 03:53:49;;;;;;;12.98;5.22;;;1.70;99.90;;;;;;5069037;28;20099;-51
2023/01/19 03:56:23;;;;;;;9.45;3.63;;;2.20;99.90;;;;;;5070306;28;20028;-47
2023/01/19 03:58:50;;;;;;;8.60;3.00;;;1.80;99.90;;;;;;5070506;28;20059;-51
2023/01/19 04:01:17;;;;;;;13.25;4.30;;;1.90;99.90;;;;;;5070310;28;20105;-50
2023/01/19 04:03:43;;;;;;;10.77;4.35;;;3.20;99.90;;;;;;5070413;28;20068;-49
2023/01/19 04:06:09;;;;;;;10.93;3.95;;;2.10;99.90;;;;;;5069888;28;20527;-52
2023/01/19 04:08:35;;;;;;;12.77;3.22;;;2.30;99.90;;;;;;5073223;28;20032;-51
2023/01/19 04:11:01;;;;;;;16.50;3.63;;;2.30;99.90;;;;;;5069861;28;20361;-49
2023/01/19 04:13:28;;;;;;;9.38;2.70;;;2.30;99.90;;;;;;5069152;28;20388;-49
2023/01/19 04:15:58;;;;;;;15.65;2.47;;;1.90;99.90;;;;;;5069492;28;20040;-49
2023/01/19 04:18:24;;;;;;;10.98;2.00;;;2.10;99.90;;;;;;5069655;28;20067;-48
2023/01/19 04:20:49;;;;;;;10.60;1.73;;;3.10;99.90;;;;;;5069623;28;20523;-51
2023/01/19 04:23:15;;;;;;;9.73;1.30;;;3.30;99.90;;;;;;5070199;28;20114;-48
2023/01/19 04:25:41;;;;;;;11.85;1.65;;;3.30;99.90;;;;;;5069661;28;20491;-52
2023/01/19 04:28:07;;;;;;;14.48;1.35;;;3.60;99.90;;;;;;5069989;28;20047;-51
2023/01/19 04:30:32;;;;;;;12.18;1.90;;;3.50;99.90;;;;;;5070078;28;20420;-52
2023/01/19 04:32:58;;;;;;;14.55;1.98;;;3.10;99.90;;;;;;5070050;28;20603;-50
2023/01/19 04:35:24;;;;;;;16.95;1.98;;;3.20;99.90;;;;;;5069814;28;20174;-50
2023/01/19 04:37:50;;;;;;;18.10;1.55;;;4.30;99.90;;;;;;5066937;28;20356;-48
2023/01/19 04:40:16;;;;;;;14.73;2.40;;;3.40;99.90;;;;;;5069595;28;20131;-47
2023/01/19 04:42:44;;;;;;;16.30;2.10;;;3.30;99.90;;;;;;5068117;28;20395;-51
2023/01/19 04:45:13;;;;;;;22.63;2.42;;;3.50;99.90;;;;;;5070344;28;20059;-48
2023/01/19 04:47:41;;;;;;;11.63;2.05;;;3.60;99.90;;;;;;5070115;28;20392;-53
2023/01/19 04:50:08;;;;;;;20.45;2.55;;;3.60;99.90;;;;;;5070206;28;20511;-49
2023/01/19 04:52:35;;;;;;;21.48;2.70;;;4.20;99.90;;;;;;5068787;28;20404;-51
2023/01/19 04:55:01;;;;;;;20.65;2.47;;;4.10;99.90;;;;;;5082560;28;20063;-53
2023/01/19 04:57:29;;;;;;;13.98;1.85;;;4.10;99.90;;;;;;5070013;28;20072;-48
2023/01/19 04:59:55;;;;;;;12.65;1.77;;;4.00;99.90;;;;;;5070030;28;20064;-49
2023/01/19 05:02:21;;;;;;;19.55;2.28;;;4.30;99.90;;;;;;5070273;28;20076;-49
2023/01/19 05:04:47;;;;;;;16.98;1.77;;;4.00;99.90;;;;;;5069206;28;20495;-51
2023/01/19 05:07:13;;;;;;;12.93;1.52;;;4.20;99.90;;;;;;5070002;28;20032;-52
2023/01/19 05:09:39;;;;;;;14.85;1.80;;;4.20;99.90;;;;;;5070151;28;20041;-49
2023/01/19 05:12:05;;;;;;;13.13;1.83;;;4.40;99.90;;;;;;5073850;28;20579;-52
2023/01/19 05:14:31;;;;;;;12.32;1.60;;;4.00;99.90;;;;;;5073579;28;20089;-47
2023/01/19 05:16:57;;;;;;;13.63;2.03;;;4.00;99.90;;;;;;5069729;28;20036;-50
2023/01/19 05:19:22;;;;;;;17.23;1.60;;;4.00;99.90;;;;;;5070289;28;20120;-51
2023/01/19 05:21:48;;;;;;;12.02;1.48;;;3.80;99.90;;;;;;5069389;28;20075;-49
2023/01/19 05:24:14;;;;;;;11.05;1.52;;;3.90;99.90;;;;;;5069477;28;20037;-49
2023/01/19 05:26:40;;;;;;;8.60;1.38;;;3.70;99.90;;;;;;5069990;28;20087;-53
2023/01/19 05:29:07;;;;;;;10.75;1.65;;;3.70;99.90;;;;;;5073336;28;20040;-48
2023/01/19 05:31:33;;;;;;;21.58;2.03;;;4.10;99.90;;;;;;5074398;28;20127;-50
2023/01/19 05:33:58;;;;;;;20.25;2.08;;;3.80;99.90;;;;;;5069941;28;20111;-50
2023/01/19 05:36:24;;;;;;;10.80;1.38;;;3.80;99.90;;;;;;5069621;28;20117;-49
2023/01/19 05:38:50;;;;;;;11.10;2.20;;;3.80;99.90;;;;;;5069552;28;20438;-50
2023/01/19 05:41:16;;;;;;;11.00;2.00;;;4.00;99.90;;;;;;5069568;28;20083;-49
2023/01/19 05:43:42;;;;;;;15.07;1.60;;;3.70;99.90;;;;;;5068294;28;20044;-50
2023/01/19 05:46:08;;;;;;;12.25;1.77;;;3.70;99.90;;;;;;5069254;28;20123;-50
2023/01/19 05:48:34;;;;;;;16.15;2.28;;;3.70;99.90;;;;;;5069248;28;20044;-46
2023/01/19 05:51:00;;;;;;;12.55;2.15;;;3.80;99.90;;;;;;5069205;28;20079;-48
2023/01/19 05:53:27;;;;;;;18.20;2.20;;;3.80;99.90;;;;;;5068243;28;20083;-48
2023/01/19 05:55:52;;;;;;;15.98;2.70;;;3.50;99.90;;;;;;5072673;28;20043;-49
2023/01/19 05:58:18;;;;;;;15.75;2.35;;;3.50;99.90;;;;;;5083321;28;20035;-51
2023/01/19 06:00:44;;;;;;;12.55;1.70;;;3.60;99.90;;;;;;5071334;28;20036;-47
2023/01/19 06:03:10;;;;;;;13.23;1.60;;;4.10;99.90;;;;;;5074039;28;20051;-48
2023/01/19 06:05:37;;;;;;;10.38;1.45;;;3.60;99.90;;;;;;5085481;28;20395;-47
2023/01/19 06:08:03;;;;;;;13.07;1.60;;;3.70;99.90;;;;;;5093985;28;20055;-47
2023/01/19 06:10:29;;;;;;;17.98;1.67;;;3.60;99.90;;;;;;5085332;28;20036;-48
2023/01/19 06:12:55;;;;;;;9.10;1.70;;;3.50;99.90;;;;;;5073006;28;20040;-48
2023/01/19 06:15:21;;;;;;;8.73;1.20;;;3.60;99.90;;;;;;5073038;28;20037;-50
2023/01/19 06:17:47;;;;;;;14.02;1.85;;;3.60;99.90;;;;;;5078062;28;20048;-50
2023/01/19 06:20:13;;;;;;;15.48;1.67;;;3.70;99.90;;;;;;5073158;28;20063;-50
2023/01/19 06:22:38;;;;;;;11.35;1.73;;;3.70;99.90;;;;;;5072000;28;20118;-49
2023/01/19 06:25:04;;;;;;;8.80;1.73;;;3.80;99.90;;;;;;5072514;28;20579;-51
2023/01/19 06:27:30;;;;;;;11.32;1.55;;;3.80;99.90;;;;;;5072298;28;20064;-48
2023/01/19 06:29:56;;;;;;;11.10;1.40;;;3.80;99.90;;;;;;5072893;28;20130;-50
2023/01/19 06:32:21;;;;;;;14.18;1.70;;;3.80;99.90;;;;;;5072616;28;20028;-49
2023/01/19 06:34:47;;;;;;;10.32;1.02;;;3.70;99.90;;;;;;5072634;28;20458;-49
2023/01/19 06:37:15;;;;;;;9.15;1.88;;;3.70;99.90;;;;;;5071387;28;20044;-51
2023/01/19 06:39:41;;;;;;;9.15;1.40;;;4.10;99.90;;;;;;5072605;28;20040;-50
2023/01/19 06:42:07;;;;;;;10.65;1.25;;;3.50;99.90;;;;;;5072404;28;20454;-50
2023/01/19 06:44:33;;;;;;;10.57;1.10;;;3.60;99.90;;;;;;5072569;28;20486;-48
2023/01/19 06:46:59;;;;;;;9.80;1.17;;;3.50;99.90;;;;;;5079146;28;20033;-47
2023/01/19 06:49:25;;;;;;;8.25;1.08;;;3.60;99.90;;;;;;5082976;28;20041;-47
2023/01/19 06:51:51;;;;;;;9.48;1.30;;;3.60;99.90;;;;;;5081123;28;20052;-48
2023/01/19 06:54:16;;;;;;;10.10;1.42;;;3.50;99.90;;;;;;5085009;28;20443;-47
2023/01/19 06:56:42;;;;;;;17.33;2.35;;;3.90;99.90;;;;;;5089234;28;20114;-49
2023/01/19 06:59:08;;;;;;;7.47;1.20;;;3.60;99.90;;;;;;5093027;28;20032;-48
2023/01/19 07:01:34;;;;;;;11.13;1.10;;;3.60;99.90;;;;;;5082301;28;20032;-46
2023/01/19 07:04:00;;;;;;;21.23;1.75;;;3.60;99.90;;;;;;5080557;28;20043;-46
2023/01/19 07:06:26;;;;;;;9.88;1.38;;;3.90;99.90;;;;;;5072101;28;20871;-47
2023/01/19 07:08:53;;;;;;;11.00;1.40;;;3.60;99.90;;;;;;5071782;28;20041;-49
2023/01/19 07:11:19;;;;;;;6.90;1.20;;;4.10;99.90;;;;;;5076559;28;20083;-46
2023/01/19 07:13:50;;;;;;;10.45;1.10;;;3.60;99.90;;;;;;5073216;28;20060;-46
2023/01/19 07:16:16;;;;;;;12.40;1.27;;;3.60;99.90;;;;;;5077447;28;20044;-46
2023/01/19 07:18:42;;;;;;;13.98;2.08;;;3.60;99.90;;;;;;5073327;28;20114;-45
2023/01/19 07:21:08;;;;;;;12.13;1.65;;;3.70;99.90;;;;;;5073969;28;20044;-46
2023/01/19 07:23:33;;;;;;;12.82;1.63;;;3.60;99.90;;;;;;5071444;28;20044;-46
2023/01/19 07:26:00;;;;;;;17.73;1.98;;;3.60;99.90;;;;;;5071415;28;20456;-46
2023/01/19 07:28:27;;;;;;;11.98;1.63;;;3.70;99.90;;;;;;5071457;28;20480;-46
2023/01/19 07:30:54;;;;;;;12.45;1.50;;;3.50;99.90;;;;;;5071523;28;20170;-46
2023/01/19 07:33:21;;;;;;;12.65;1.52;;;3.50;99.90;;;;;;5072058;28;20139;-46
2023/01/19 07:35:50;;;;;;;13.90;1.67;;;3.50;99.90;;;;;;5070050;28;20041;-47
2023/01/19 07:38:17;;;;;;;15.55;2.75;;;3.50;99.90;;;;;;5069530;28;20044;-46
2023/01/19 07:40:45;;;;;;;13.32;1.60;;;3.50;99.90;;;;;;5074015;28;20065;-48
2023/01/19 07:43:12;;;;;;;11.68;1.73;;;3.50;99.90;;;;;;5082203;28;20048;-46
2023/01/19 07:45:38;;;;;;;10.32;1.88;;;3.80;99.90;;;;;;5075416;28;20396;-47
2023/01/19 07:48:04;;;;;;;14.20;1.42;;;3.60;99.90;;;;;;5073778;28;20037;-46
2023/01/19 07:50:30;;;;;;;14.50;1.63;;;3.50;99.90;;;;;;5071207;28;20041;-45
2023/01/19 07:52:56;;;;;;;14.80;1.73;;;3.50;99.90;;;;;;5068853;28;20056;-46
2023/01/19 07:55:23;;;;;;;12.90;1.75;;;3.50;99.90;;;;;;5070796;28;20044;-49
2023/01/19 07:57:51;;;;;;;13.30;1.63;;;3.40;99.90;;;;;;5073009;28;20055;-48
2023/01/19 08:00:20;;;;;;;14.32;2.63;;;3.90;99.90;;;;;;5071023;28;20037;-46
2023/01/19 08:02:50;;;;;;;12.38;1.52;;;3.40;99.90;;;;;;5070390;28;20488;-49
2023/01/19 08:05:20;;;;;;;16.05;2.00;;;3.30;99.90;;;;;;5070712;28;20450;-47
2023/01/19 08:07:46;;;;;;;10.40;1.80;;;3.30;99.90;;;;;;5069663;28;20074;-47
2023/01/19 08:10:16;;;;;;;17.48;1.73;;;3.40;99.90;;;;;;5070746;28;20506;-48
2023/01/19 08:12:41;;;;;;;10.30;1.73;;;3.40;99.90;;;;;;5070286;28;20028;-49
2023/01/19 08:15:08;;;;;;;14.25;1.67;;;3.50;99.90;;;;;;5070547;28;20462;-46
2023/01/19 08:17:35;;;;;;;18.38;2.53;;;3.40;99.90;;;;;;5070836;28;20028;-49
2023/01/19 08:20:01;;;;;;;13.60;1.40;;;3.30;99.90;;;;;;5070812;28;20472;-49
2023/01/19 08:22:26;;;;;;;14.98;2.38;;;3.30;99.90;;;;;;5070255;28;20037;-49
2023/01/19 08:24:53;;;;;;;14.85;2.47;;;3.30;99.90;;;;;;5074892;28;20403;-49
2023/01/19 08:27:19;;;;;;;11.63;1.48;;;3.40;99.90;;;;;;5067502;28;20078;-49
2023/01/19 08:29:45;;;;;;;14.85;1.95;;;3.40;99.90;;;;;;5069471;28;20662;-47
2023/01/19 08:32:11;;;;;;;12.20;1.48;;;3.40;99.90;;;;;;5067259;28;20500;-51
2023/01/19 08:34:37;;;;;;;20.98;1.85;;;3.40;99.90;;;;;;5070142;28;20051;-52
2023/01/19 08:37:03;;;;;;;14.45;1.60;;;3.40;99.90;;;;;;5067723;28;20040;-46
2023/01/19 08:39:28;;;;;;;13.05;1.63;;;3.40;99.90;;;;;;5080533;28;20092;-48
2023/01/19 08:41:55;;;;;;;11.88;2.10;;;3.70;99.90;;;;;;5077639;28;20369;-46
2023/01/19 08:44:20;;;;;;;12.55;1.83;;;3.50;99.90;;;;;;5072222;28;20032;-46
2023/01/19 08:46:46;;;;;;;9.18;1.85;;;3.40;99.90;;;;;;5076372;28;20039;-48
2023/01/19 08:49:12;;;;;;;15.70;1.45;;;3.40;99.90;;;;;;5071894;28;20120;-46
2023/01/19 08:51:38;;;;;;;16.88;1.92;;;3.50;99.90;;;;;;5070966;28;20132;-49
2023/01/19 08:54:04;;;;;;;15.85;1.52;;;3.50;99.90;;;;;;5084167;28;20047;-48
2023/01/19 08:56:30;;;;;;;18.63;1.70;;;3.50;99.90;;;;;;5070654;28;20369;-47
2023/01/19 08:58:56;;;;;;;20.45;2.30;;;3.50;99.90;;;;;;5078472;28;20185;-50
2023/01/19 09:01:22;;;;;;;18.63;1.90;;;3.90;99.90;;;;;;5072037;28;20115;-52
2023/01/19 09:03:48;;;;;;;17.52;2.10;;;3.50;99.90;;;;;;5076446;28;20097;-49
2023/01/19 09:06:17;;;;;;;12.60;2.28;;;3.40;99.90;;;;;;5074616;28;20047;-51
2023/01/19 09:08:43;;;;;;;20.40;2.50;;;3.30;99.90;;;;;;5074503;28;20119;-45
2023/01/19 09:11:10;;;;;;;12.80;1.85;;;3.40;99.90;;;;;;5068003;28;20123;-47
2023/01/19 09:13:36;;;;;;;14.50;2.13;;;3.40;99.90;;;;;;5067800;28;20080;-48
2023/01/19 09:16:02;;;;;;;15.23;1.98;;;3.30;99.90;;;;;;5069980;28;20083;-46
2023/01/19 09:18:28;;;;;;;16.75;1.70;;;3.40;99.90;;;;;;5068628;28;20047;-49
2023/01/19 09:20:56;;;;;;;12.52;1.50;;;3.50;99.90;;;;;;5079362;28;20051;-45
2023/01/19 09:23:22;;;;;;;14.85;1.83;;;3.90;99.90;;;;;;5081852;28;20547;-50
2023/01/19 09:25:48;;;;;;;15.48;1.60;;;3.70;99.90;;;;;;5069839;28;20123;-50
2023/01/19 09:28:16;;;;;;;14.93;2.08;;;3.60;99.90;;;;;;5069413;28;20391;-48
2023/01/19 09:30:43;;;;;;;14.02;2.10;;;3.70;99.90;;;;;;5068362;28;20041;-47
2023/01/19 09:33:11;;;;;;;7.97;1.58;;;3.60;99.90;;;;;;5068003;28;20044;-50
2023/01/19 09:35:38;;;;;;;16.08;1.88;;;3.60;99.90;;;;;;5067873;28;20179;-45
2023/01/19 09:38:06;;;;;;;17.52;1.80;;;3.70;99.90;;;;;;5081163;28;20044;-47
2023/01/19 09:40:32;;;;;;;10.00;1.42;;;3.60;99.90;;;;;;5069841;28;20486;-47
2023/01/19 09:43:11;;;;;;;15.90;2.05;;;3.90;99.90;;;;;;5074897;28;20081;-46
2023/01/19 09:45:45;;;;;;;15.07;1.95;;;3.80;99.90;;;;;;5077894;28;20051;-47
2023/01/19 09:48:20;;;;;;;14.23;1.50;;;3.80;99.90;;;;;;5073871;28;20079;-47
2023/01/19 09:50:47;;;;;;;8.68;1.30;;;4.00;99.90;;;;;;5071399;28;20049;-46
2023/01/19 09:53:27;;;;;;;10.07;1.70;;;4.00;99.90;;;;;;5073198;28;20051;-48
2023/01/19 09:55:53;;;;;;;10.68;1.55;;;4.10;99.90;;;;;;5071986;28;20455;-49
2023/01/19 09:58:19;;;;;;;13.48;1.80;;;4.20;99.90;;;;;;5083402;28;20064;-49
2023/01/19 10:00:53;;;;;;;10.95;1.35;;;4.60;99.90;;;;;;5073330;28;20145;-48
2023/01/19 10:03:19;;;;;;;13.13;1.65;;;4.80;99.90;;;;;;5073005;28;20980;-49
2023/01/19 10:05:55;;;;;;;10.75;1.70;;;4.40;99.90;;;;;;5073258;28;20044;-47
2023/01/19 10:08:40;;;;;;;12.77;2.00;;;4.80;99.90;;;;;;5081456;28;20062;-49
2023/01/19 10:11:25;;;;;;;9.63;2.33;;;4.50;99.90;;;;;;5073994;28;20041;-49
2023/01/19 10:13:53;;;;;;;9.65;1.70;;;5.00;99.90;;;;;;5074295;28;20040;-47
2023/01/19 10:16:40;;;;;;;14.68;1.60;;;4.70;99.90;;;;;;5073800;28;20471;-49
2023/01/19 10:19:29;;;;;;;13.65;1.60;;;4.90;99.90;;;;;;5074587;28;20040;-47
2023/01/19 10:21:59;;;;;;;9.18;1.42;;;4.80;99.90;;;;;;5071527;28;20041;-49
2023/01/19 10:24:41;;;;;;;8.55;1.40;;;5.10;99.90;;;;;;5077134;28;20039;-49
2023/01/19 10:27:14;;;;;;;10.40;1.65;;;5.40;99.90;;;;;;5076632;28;20055;-48
2023/01/19 10:29:40;;;;;;;8.90;1.60;;;5.70;99.90;;;;;;5082625;28;20044;-48
2023/01/19 10:32:20;;;;;;;10.57;1.60;;;6.00;99.90;;;;;;5075181;28;20040;-49
2023/01/19 10:34:46;;;;;;;8.43;1.55;;;6.20;99.90;;;;;;5072495;28;20098;-48
2023/01/19 10:37:21;;;;;;;10.88;1.70;;;6.30;99.90;;;;;;5072718;28;20079;-46
2023/01/19 10:39:52;;;;;;;10.40;2.47;;;6.50;99.90;;;;;;5071929;28;20119;-46
2023/01/19 10:42:18;;;;;;;12.13;2.00;;;6.50;99.90;;;;;;5070423;28;20110;-47
2023/01/19 10:44:45;;;;;;;7.50;1.63;;;6.60;99.90;;;;;;5072345;28;20040;-46
2023/01/19 10:47:19;;;;;;;9.93;1.10;;;6.80;99.90;;;;;;5072388;28;20379;-51
2023/01/19 10:49:46;;;;;;;;;;;6.90;99.90;;;;;;5075354;28;20380;-49
2023/01/19 10:52:35;;;;;;;10.85;1.38;;;6.90;99.90;;;;;;5080626;28;19926;-48
2023/01/19 10:55:04;;;;;;;10.25;1.38;;;7.10;99.90;;;;;;5054229;28;20044;-49
2023/01/19 10:57:31;;;;;;;8.73;1.50;;;7.00;99.90;;;;;;5071858;28;20379;-48
2023/01/19 10:59:57;;;;;;;5.95;1.45;;;7.10;99.90;;;;;;5072938;28;20045;-47
2023/01/19 11:02:28;;;;;;;10.20;2.17;;;7.10;99.90;;;;;;5070501;28;20423;-49
2023/01/19 11:05:18;;;;;;;10.15;1.17;;;7.20;99.90;;;;;;5071846;28;20043;-50
2023/01/19 11:07:44;;;;;;;5.43;1.40;;;7.20;99.90;;;;;;5071805;28;20047;-48
2023/01/19 11:10:19;;;;;;;9.70;1.35;;;7.30;99.90;;;;;;5070254;28;20044;-49
2023/01/19 11:12:59;;;;;;;7.28;1.13;;;7.20;99.90;;;;;;5071404;28;20102;-49
2023/01/19 11:15:40;;;;;;;6.47;1.15;;;7.00;99.90;;;;;;5071692;28;20388;-50
2023/01/19 11:18:06;;;;;;;9.65;1.70;;;6.80;99.90;;;;;;5070133;28;20040;-50
2023/01/19 11:20:49;;;;;;;17.65;1.65;;;5.50;99.90;;;;;;5076933;28;20044;-51
2023/01/19 11:23:27;;;;;;;7.32;1.17;;;6.60;99.90;;;;;;5071935;28;20108;-50
2023/01/19 11:26:00;;;;;;;7.82;1.20;;;6.60;99.90;;;;;;5069809;28;22133;-50
2023/01/19 11:28:34;;;;;;;10.90;1.33;;;6.60;99.90;;;;;;5069345;28;20040;-47
2023/01/19 11:31:10;;;;;;;7.05;1.40;;;6.90;99.90;;;;;;5075353;28;20044;-47
2023/01/19 11:33:51;;;;;;;9.50;1.10;;;7.00;99.90;;;;;;5072196;28;20380;-47
2023/01/19 11:36:21;;;;;;;10.68;1.60;;;7.40;99.90;;;;;;5077645;28;20040;-49
2023/01/19 11:38:49;;;;;;;8.63;1.55;;;7.40;99.90;;;;;;5067802;28;20128;-48
2023/01/19 11:41:47;;;;;;;6.65;1.40;;;7.70;99.90;;;;;;5065136;28;20079;-50
2023/01/19 11:44:19;;;;;;;9.70;1.40;;;7.90;99.90;;;;;;5058649;28;20133;-48
2023/01/19 11:46:52;;;;;;;7.05;1.30;;;8.20;99.90;;;;;;5063293;28;20400;-50
2023/01/19 11:49:28;;;;;;;9.98;1.30;;;8.30;99.90;;;;;;5063735;28;20063;-50
2023/01/19 11:52:27;;;;;;;8.05;1.67;;;8.90;99.90;;;;;;5063014;28;20056;-50
2023/01/19 11:55:18;;;;;;;13.43;1.67;;;8.10;99.90;;;;;;5066464;28;20033;-47
2023/01/19 11:57:50;;;;;;;9.43;1.13;;;8.10;99.90;;;;;;5072558;28;20039;-51
2023/01/19 12:00:24;;;;;;;11.95;1.80;;;8.00;99.90;;;;;;5071860;28;20477;-47
2023/01/19 12:02:54;;;;;;;10.02;1.70;;;8.00;99.90;;;;;;5071085;28;20044;-45
2023/01/19 12:05:21;;;;;;;7.03;1.13;;;7.90;99.90;;;;;;5067938;28;20496;-46
2023/01/19 12:07:49;;;;;;;8.95;1.40;;;8.00;99.90;;;;;;5062058;28;20072;-46
2023/01/19 12:10:28;;;;;;;9.85;1.52;;;8.00;99.90;;;;;;5065709;28;20083;-45
2023/01/19 12:12:55;;;;;;;6.40;1.08;;;7.70;99.90;;;;;;5063842;28;20127;-46
2023/01/19 12:15:25;;;;;;;9.77;1.50;;;7.70;99.90;;;;;;5064796;28;20411;-46
2023/01/19 12:17:54;;;;;;;5.28;0.98;;;7.60;99.90;;;;;;5069489;28;20047;-45
2023/01/19 12:20:43;;;;;;;5.55;1.05;;;7.60;99.90;;;;;;5063577;28;20427;-48
2023/01/19 12:23:31;;;;;;;8.13;1.25;;;7.30;99.90;;;;;;5067664;28;20033;-46
2023/01/19 12:26:14;;;;;;;7.85;1.10;;;7.10;99.90;;;;;;5069555;28;20044;-46
2023/01/19 12:28:44;;;;;;;6.43;1.30;;;7.00;99.90;;;;;;5074409;28;20032;-46
2023/01/19 12:31:17;;;;;;;6.78;1.20;;;6.60;99.90;;;;;;5068619;28;20661;-46
2023/01/19 12:33:43;;;;;;;5.22;1.00;;;6.60;99.90;;;;;;5070065;28;20373;-46
2023/01/19 12:36:40;;;;;;;11.38;2.03;;;6.40;99.90;;;;;;5069971;28;20079;-49
2023/01/19 12:39:21;;;;;;;8.60;1.50;;;6.60;99.90;;;;;;5069805;28;20460;-47
2023/01/19 12:41:47;;;;;;;6.05;0.82;;;6.80;99.90;;;;;;5070157;28;20032;-46
2023/01/19 12:44:20;;;;;;;6.30;1.00;;;6.80;99.90;;;;;;5069895;28;20076;-48
2023/01/19 12:46:49;;;;;;;6.68;1.23;;;7.00;99.90;;;;;;5072098;28;20044;-50
2023/01/19 12:49:22;;;;;;;5.60;1.00;;;7.00;99.90;;;;;;5070335;28;20040;-48
2023/01/19 12:51:51;;;;;;;6.45;0.90;;;7.10;99.90;;;;;;5069509;28;20253;-47
2023/01/19 12:54:31;;;;;;;8.38;1.33;;;7.30;99.90;;;;;;5070371;28;20028;-48
2023/01/19 12:57:03;;;;;;;7.90;1.13;;;7.50;99.90;;;;;;5069775;28;20032;-48
2023/01/19 12:59:32;;;;;;;7.55;1.30;;;7.60;99.90;;;;;;5070088;28;20042;-47
2023/01/19 13:02:19;;;;;;;8.43;1.50;;;7.80;99.90;;;;;;5069767;28;20124;-48
2023/01/19 13:05:43;;;;;;;10.20;2.00;;;8.00;99.90;;;;;;5069591;28;20040;-49
2023/01/19 13:08:11;;;;;;;7.28;1.52;;;8.00;99.90;;;;;;5041767;28;20444;-47
2023/01/19 13:10:55;;;;;;;10.00;1.70;;;8.00;99.90;;;;;;5047404;28;20049;-50